createdAt,value
2019-06-07T00:01:21.172Z,69.65
2019-06-07T00:03:51.857Z,70.04
2019-06-07T00:06:25.629Z,69.60
2019-06-07T00:08:53.113Z,69.50
2019-06-07T00:11:22.792Z,69.95
2019-06-07T00:13:52.390Z,69.81
2019-06-07T00:18:57.225Z,69.86
2019-06-07T00:22:12.898Z,70.74
2019-06-07T00:23:58.143Z,71.72
2019-06-07T00:26:27.895Z,70.42
2019-06-07T00:28:57.548Z,70.59
2019-06-07T00:31:27.277Z,70.16
2019-06-07T00:33:57.003Z,71.14
2019-06-07T00:36:26.671Z,70.80
2019-06-07T00:38:56.223Z,70.96
2019-06-07T00:41:26.101Z,71.35
2019-06-07T00:43:55.747Z,71.21
2019-06-07T00:46:25.553Z,70.42
2019-06-07T00:48:55.762Z,70.70
2019-06-07T00:51:25.573Z,71.47
2019-06-07T00:53:55.264Z,72.67
2019-06-07T00:56:25.288Z,71.90
2019-06-07T00:59:10.916Z,71.92
2019-06-07T01:01:26.322Z,70.94
2019-06-07T01:03:56.249Z,71.71
2019-06-07T01:06:25.893Z,73.61
2019-06-07T01:08:55.563Z,73.38
2019-06-07T01:11:26.160Z,74.08
2019-06-07T01:13:55.960Z,73.97
2019-06-07T01:16:26.410Z,72.54
2019-06-07T01:18:56.308Z,71.16
2019-06-07T01:21:29.705Z,71.97
2019-06-07T01:24:11.639Z,74.08
2019-06-07T01:26:30.252Z,75.20
2019-06-07T01:29:00.264Z,73.60
2019-06-07T01:31:31.482Z,73.02
2019-06-07T01:34:01.283Z,73.14
2019-06-07T01:36:31.290Z,74.89
2019-06-07T01:39:01.005Z,74.68
2019-06-07T01:41:31.011Z,73.44
2019-06-07T01:44:00.691Z,73.99
2019-06-07T01:46:30.943Z,75.96
2019-06-07T01:49:00.700Z,76.06
2019-06-07T01:51:30.709Z,74.66
2019-06-07T01:54:48.560Z,73.12
2019-06-07T01:56:32.538Z,74.13
2019-06-07T01:59:02.256Z,75.12
2019-06-07T02:01:35.215Z,75.66
2019-06-07T02:04:03.574Z,75.86
2019-06-07T02:06:33.911Z,75.01
2019-06-07T02:09:04.532Z,74.98
2019-06-07T02:11:34.542Z,74.32
2019-06-07T02:14:07.843Z,74.69
2019-06-07T02:16:37.479Z,75.38
2019-06-07T02:19:07.451Z,75.09
2019-06-07T02:21:37.469Z,74.87
2019-06-07T02:24:07.182Z,75.37
2019-06-07T02:26:36.814Z,75.92
2019-06-07T02:29:06.619Z,75.04
2019-06-07T02:31:39.614Z,75.25
2019-06-07T02:34:07.710Z,75.53
2019-06-07T02:36:41.506Z,75.04
2019-06-07T02:39:09.052Z,74.45
2019-06-07T02:41:40.459Z,74.37
2019-06-07T02:44:10.385Z,75.01
2019-06-07T02:46:49.133Z,73.89
2019-06-07T02:49:11.545Z,74.18
2019-06-07T02:51:42.136Z,74.54
2019-06-07T02:54:12.010Z,73.57
2019-06-07T02:56:56.273Z,76.03
2019-06-07T02:59:12.945Z,75.14
2019-06-07T03:01:42.920Z,75.24
2019-06-07T03:04:14.577Z,75.03
2019-06-07T03:06:45.566Z,74.56
2019-06-07T03:09:15.228Z,74.29
2019-06-07T03:11:46.818Z,75.49
2019-06-07T03:14:19.617Z,76.28
2019-06-07T03:16:52.330Z,77.08
2019-06-07T03:19:26.395Z,75.56
2019-06-07T03:21:56.167Z,76.16
2019-06-07T03:24:29.596Z,75.71
2019-06-07T03:29:30.406Z,75.26
2019-06-07T03:32:00.687Z,75.58
2019-06-07T03:34:34.245Z,75.87
2019-06-07T03:37:01.734Z,76.01
2019-06-07T03:39:31.502Z,75.39
2019-06-07T03:42:06.247Z,75.26
2019-06-07T03:44:35.860Z,75.67
2019-06-07T03:47:04.463Z,75.06
2019-06-07T03:49:36.487Z,74.93
2019-06-07T03:52:05.586Z,74.32
2019-06-07T03:54:38.446Z,73.62
2019-06-07T03:57:06.672Z,72.17
2019-06-07T03:59:39.576Z,70.93
2019-06-07T04:02:07.830Z,70.79
2019-06-07T04:04:38.564Z,68.26
2019-06-07T04:07:08.706Z,65.73
2019-06-07T04:09:42.068Z,63.15
2019-06-07T04:12:10.576Z,61.42
2019-06-07T04:14:42.494Z,60.77
2019-06-07T04:17:11.801Z,59.69
2019-06-07T04:19:43.307Z,58.59
2019-06-07T04:22:12.771Z,58.14
2019-06-07T04:24:42.560Z,56.51
2019-06-07T04:27:12.308Z,55.34
2019-06-07T04:30:05.837Z,54.96
2019-06-07T04:32:13.577Z,55.31
2019-06-07T04:34:43.467Z,54.57
2019-06-07T04:37:14.170Z,53.95
2019-06-07T04:39:45.415Z,53.97
2019-06-07T04:42:18.114Z,52.61
2019-06-07T04:44:48.749Z,51.99
2019-06-07T04:47:20.526Z,51.00
2019-06-07T04:49:51.816Z,50.43
2019-06-07T04:52:21.738Z,49.76
2019-06-07T04:54:51.593Z,49.27
2019-06-07T04:57:21.397Z,49.50
2019-06-07T05:00:12.240Z,49.66
2019-06-07T05:02:22.691Z,49.84
2019-06-07T05:04:52.388Z,50.93
2019-06-07T05:07:22.159Z,48.96
2019-06-07T05:09:52.611Z,48.58
2019-06-07T05:12:22.330Z,46.99
2019-06-07T05:14:52.227Z,47.25
2019-06-07T05:17:23.156Z,46.54
2019-06-07T05:19:53.916Z,46.38
2019-06-07T05:22:24.528Z,46.03
2019-06-07T05:24:54.546Z,45.65
2019-06-07T05:27:24.446Z,46.14
2019-06-07T05:30:13.161Z,48.33
2019-06-07T05:32:29.086Z,49.27
2019-06-07T05:35:00.319Z,47.72
2019-06-07T05:37:33.536Z,45.75
2019-06-07T05:40:03.668Z,45.96
2019-06-07T05:42:40.216Z,47.06
2019-06-07T05:45:08.613Z,45.78
2019-06-07T05:47:44.379Z,45.14
2019-06-07T05:50:38.071Z,47.19
2019-06-07T05:52:46.801Z,48.83
2019-06-07T05:55:14.200Z,48.83
2019-06-07T05:57:49.165Z,49.21
2019-06-07T06:00:15.414Z,49.59
2019-06-07T06:03:04.193Z,52.12
2019-06-07T06:05:32.675Z,54.03
2019-06-07T06:07:50.905Z,55.07
2019-06-07T06:10:19.994Z,56.50
2019-06-07T06:12:51.881Z,56.16
2019-06-07T06:15:41.539Z,58.58
2019-06-07T06:18:54.755Z,59.43
2019-06-07T06:21:24.970Z,55.82
2019-06-07T06:23:54.987Z,54.35
2019-06-07T06:26:24.742Z,54.95
2019-06-07T06:28:54.821Z,55.46
2019-06-07T06:31:24.672Z,53.33
2019-06-07T06:33:56.289Z,52.66
2019-06-07T06:36:26.031Z,51.40
2019-06-07T06:38:57.894Z,52.88
2019-06-07T06:41:27.526Z,51.69
2019-06-07T06:43:57.968Z,49.91
2019-06-07T06:46:38.630Z,49.33
2019-06-07T06:48:59.619Z,49.08
2019-06-07T06:51:29.660Z,52.42
2019-06-07T06:53:59.620Z,53.98
2019-06-07T06:56:29.392Z,54.27
2019-06-07T06:59:34.124Z,56.73
2019-06-07T07:01:30.832Z,55.95
2019-06-07T07:04:12.445Z,55.79
2019-06-07T07:06:33.170Z,56.61
2019-06-07T07:09:03.497Z,55.67
2019-06-07T07:11:33.247Z,56.04
2019-06-07T07:14:03.154Z,56.85
2019-06-07T07:16:33.597Z,57.35
2019-06-07T07:19:03.148Z,57.25
2019-06-07T07:21:32.741Z,56.55
2019-06-07T07:24:20.572Z,54.92
2019-06-07T07:26:33.706Z,53.68
2019-06-07T07:29:03.500Z,55.29
2019-06-07T07:31:33.135Z,54.27
2019-06-07T07:36:39.230Z,50.90
2019-06-07T07:39:07.477Z,54.17
2019-06-07T07:41:37.256Z,55.43
2019-06-07T07:44:07.991Z,51.71
2019-06-07T07:46:38.520Z,51.50
2019-06-07T07:49:08.077Z,50.58
2019-06-07T07:51:37.673Z,49.66
2019-06-07T07:54:10.545Z,50.66
2019-06-07T07:56:39.244Z,49.88
2019-06-07T07:59:09.361Z,49.96
2019-06-07T08:01:39.157Z,49.18
2019-06-07T08:04:08.973Z,50.08
2019-06-07T08:06:38.926Z,51.02
2019-06-07T08:09:09.574Z,52.70
2019-06-07T08:11:39.241Z,52.92
2019-06-07T08:14:09.105Z,56.29
2019-06-07T08:16:39.067Z,56.50
2019-06-07T08:19:09.861Z,55.01
2019-06-07T08:21:39.702Z,53.02
2019-06-07T08:24:09.460Z,52.42
2019-06-07T08:26:39.192Z,51.98
2019-06-07T08:29:08.954Z,51.97
2019-06-07T08:31:38.693Z,51.32
2019-06-07T08:34:08.389Z,50.66
2019-06-07T08:36:42.386Z,50.11
2019-06-07T08:39:10.232Z,51.00
2019-06-07T08:41:53.705Z,52.17
2019-06-07T08:44:23.307Z,52.39
2019-06-07T08:46:42.535Z,51.79
2019-06-07T08:49:12.171Z,53.78
2019-06-07T08:51:41.921Z,52.81
2019-06-07T08:54:22.177Z,52.50
2019-06-07T08:56:43.717Z,55.52
2019-06-07T08:59:13.629Z,54.96
2019-06-07T09:01:43.263Z,53.92
2019-06-07T09:04:12.902Z,54.82
2019-06-07T09:09:14.389Z,52.92
2019-06-07T09:11:44.135Z,53.50
2019-06-07T09:14:13.795Z,53.85
2019-06-07T09:16:43.500Z,55.48
2019-06-07T09:19:13.123Z,55.67
2019-06-07T09:21:42.864Z,57.15
2019-06-07T09:24:12.472Z,57.12
2019-06-07T09:26:42.030Z,59.26
2019-06-07T09:29:12.692Z,57.97
2019-06-07T09:31:52.428Z,58.22
2019-06-07T09:34:15.290Z,58.52
2019-06-07T09:36:45.057Z,59.45
2019-06-07T09:39:14.847Z,59.16
2019-06-07T09:41:49.493Z,58.83
2019-06-07T09:44:24.598Z,58.73
2019-06-07T09:46:47.307Z,58.68
2019-06-07T09:49:30.573Z,58.77
2019-06-07T09:51:48.461Z,57.54
2019-06-07T09:56:49.994Z,60.94
2019-06-07T09:59:19.669Z,58.88
2019-06-07T10:01:49.614Z,58.82
2019-06-07T10:04:30.747Z,58.68
2019-06-07T10:06:50.978Z,57.78
2019-06-07T10:11:52.342Z,58.89
2019-06-07T10:14:22.092Z,58.86
2019-06-07T10:16:51.778Z,58.11
2019-06-07T10:19:21.571Z,58.21
2019-06-07T10:21:51.380Z,59.08
2019-06-07T10:24:20.936Z,57.62
2019-06-07T10:26:50.629Z,59.14
2019-06-07T10:29:20.242Z,58.82
2019-06-07T10:31:50.028Z,58.01
2019-06-07T10:34:19.727Z,58.18
2019-06-07T10:36:49.402Z,57.44
2019-06-07T10:39:19.093Z,56.24
2019-06-07T10:41:49.048Z,54.30
2019-06-07T10:44:18.728Z,55.64
2019-06-07T10:46:48.319Z,54.89
2019-06-07T10:49:18.028Z,55.62
2019-06-07T10:51:47.615Z,52.49
2019-06-07T10:54:27.944Z,53.28
2019-06-07T10:56:48.635Z,52.75
2019-06-07T10:59:18.252Z,52.14
2019-06-07T11:01:47.877Z,50.08
2019-06-07T11:04:17.501Z,51.12
2019-06-07T11:06:47.247Z,50.92
2019-06-07T11:09:16.936Z,50.00
2019-06-07T11:11:46.576Z,50.72
2019-06-07T11:14:16.189Z,48.98
2019-06-07T11:16:45.874Z,48.21
2019-06-07T11:19:17.778Z,48.03
2019-06-07T11:21:46.924Z,46.54
2019-06-07T11:24:24.269Z,48.98
2019-06-07T11:26:49.725Z,48.33
2019-06-07T11:29:19.397Z,49.02
2019-06-07T11:31:48.960Z,49.97
2019-06-07T11:34:18.913Z,47.39
2019-06-07T11:36:51.086Z,46.97
2019-06-07T11:39:20.221Z,45.64
2019-06-07T11:41:50.000Z,45.43
2019-06-07T11:44:19.748Z,45.99
2019-06-07T11:46:49.380Z,46.81
2019-06-07T11:49:20.283Z,47.17
2019-06-07T11:51:50.367Z,45.63
2019-06-07T11:54:20.547Z,45.05
2019-06-07T11:56:50.291Z,45.43
2019-06-07T11:59:20.028Z,44.70
2019-06-07T12:01:49.606Z,46.29
2019-06-07T12:04:32.513Z,46.64
2019-06-07T12:06:50.714Z,45.80
2019-06-07T12:09:20.384Z,44.75
2019-06-07T12:11:49.931Z,44.15
2019-06-07T12:14:19.514Z,45.27
2019-06-07T12:16:49.091Z,44.29
2019-06-07T12:19:19.763Z,44.94
2019-06-07T12:21:49.741Z,45.51
2019-06-07T12:24:21.159Z,44.35
2019-06-07T12:26:51.842Z,44.87
2019-06-07T12:29:21.603Z,43.79
2019-06-07T12:31:51.667Z,45.12
2019-06-07T12:34:21.664Z,45.15
2019-06-07T12:36:51.703Z,44.71
2019-06-07T12:39:22.246Z,45.19
2019-06-07T12:41:51.970Z,44.91
2019-06-07T12:44:22.845Z,44.80
2019-06-07T12:46:53.048Z,44.56
2019-06-07T12:49:23.572Z,44.42
2019-06-07T12:51:53.581Z,43.90
2019-06-07T12:54:23.869Z,44.83
2019-06-07T12:56:53.783Z,44.64
2019-06-07T12:59:24.466Z,43.96
2019-06-07T13:01:54.131Z,44.70
2019-06-07T13:04:24.967Z,46.39
2019-06-07T13:06:54.904Z,45.61
2019-06-07T13:09:24.613Z,45.14
2019-06-07T13:11:54.553Z,44.73
2019-06-07T13:14:24.346Z,46.94
2019-06-07T13:16:54.024Z,46.34
2019-06-07T13:19:24.357Z,45.60
2019-06-07T13:21:54.126Z,45.94
2019-06-07T13:24:25.158Z,46.84
2019-06-07T13:26:54.953Z,46.58
2019-06-07T13:29:25.145Z,48.92
2019-06-07T13:31:56.143Z,47.72
2019-06-07T13:34:25.979Z,46.48
2019-06-07T13:36:55.770Z,47.36
2019-06-07T13:39:27.605Z,46.39
2019-06-07T13:41:56.987Z,46.82
2019-06-07T13:44:26.837Z,45.89
2019-06-07T13:46:57.630Z,46.49
2019-06-07T13:49:27.952Z,47.00
2019-06-07T13:51:58.035Z,45.52
2019-06-07T13:54:27.922Z,45.66
2019-06-07T13:57:02.739Z,45.96
2019-06-07T13:59:29.352Z,45.87
2019-06-07T14:02:00.887Z,46.60
2019-06-07T14:04:31.822Z,47.24
2019-06-07T14:07:01.640Z,46.29
2019-06-07T14:09:31.468Z,47.58
2019-06-07T14:12:01.289Z,47.68
2019-06-07T14:14:31.065Z,47.90
2019-06-07T14:17:01.766Z,45.78
2019-06-07T14:19:31.525Z,46.73
2019-06-07T14:22:02.054Z,45.30
2019-06-07T14:24:31.783Z,46.05
2019-06-07T14:27:07.963Z,46.22
2019-06-07T14:29:41.211Z,47.64
2019-06-07T14:32:11.146Z,47.41
2019-06-07T14:34:41.129Z,46.09
2019-06-07T14:37:11.148Z,46.01
2019-06-07T14:39:41.269Z,46.90
2019-06-07T14:42:11.492Z,48.24
2019-06-07T14:44:41.353Z,47.70
2019-06-07T14:47:11.084Z,48.06
2019-06-07T14:49:40.828Z,47.68
2019-06-07T14:52:10.457Z,47.72
2019-06-07T14:54:40.128Z,45.93
2019-06-07T14:57:09.822Z,46.23
2019-06-07T14:59:39.475Z,47.50
2019-06-07T15:02:09.320Z,47.74
2019-06-07T15:04:42.643Z,47.00
2019-06-07T15:07:14.934Z,47.43
2019-06-07T15:09:44.765Z,47.81
2019-06-07T15:12:24.635Z,49.02
2019-06-07T15:14:46.195Z,48.48
2019-06-07T15:17:15.853Z,48.14
2019-06-07T15:19:45.589Z,50.08
2019-06-07T15:22:15.444Z,48.07
2019-06-07T15:24:45.180Z,48.29
2019-06-07T15:27:15.430Z,48.92
2019-06-07T15:29:45.143Z,48.87
2019-06-07T15:32:15.946Z,49.65
2019-06-07T15:34:45.691Z,49.29
2019-06-07T15:37:15.760Z,49.31
2019-06-07T15:39:45.541Z,48.85
2019-06-07T15:42:15.383Z,48.66
2019-06-07T15:44:45.033Z,49.50
2019-06-07T15:47:14.677Z,49.68
2019-06-07T15:49:44.668Z,50.89
2019-06-07T15:52:14.305Z,52.92
2019-06-07T15:54:44.039Z,50.98
2019-06-07T15:57:13.922Z,52.19
2019-06-07T15:59:43.628Z,50.44
2019-06-07T16:02:13.490Z,50.32
2019-06-07T16:04:43.174Z,50.20
2019-06-07T16:07:12.827Z,50.17
2019-06-07T16:09:42.861Z,50.04
2019-06-07T16:12:12.750Z,50.90
2019-06-07T16:14:43.469Z,49.95
2019-06-07T16:17:13.722Z,50.07
2019-06-07T16:19:46.532Z,50.44
2019-06-07T16:22:15.254Z,49.91
2019-06-07T16:24:44.963Z,50.15
2019-06-07T16:27:14.718Z,51.57
2019-06-07T16:29:44.877Z,51.65
2019-06-07T16:32:14.716Z,51.11
2019-06-07T16:34:46.056Z,51.63
2019-06-07T16:37:16.842Z,50.81
2019-06-07T16:39:46.781Z,51.61
2019-06-07T16:42:16.613Z,51.25
2019-06-07T16:44:47.057Z,52.43
2019-06-07T16:47:16.674Z,51.73
2019-06-07T16:49:46.702Z,50.99
2019-06-07T16:52:16.439Z,50.47
2019-06-07T16:54:47.602Z,51.28
2019-06-07T16:57:17.868Z,50.56
2019-06-07T16:59:50.493Z,51.67
2019-06-07T17:02:20.391Z,52.37
2019-06-07T17:04:50.380Z,51.56
2019-06-07T17:07:20.282Z,50.91
2019-06-07T17:09:50.175Z,50.88
2019-06-07T17:12:21.030Z,51.68
2019-06-07T17:14:51.138Z,52.52
2019-06-07T17:17:21.427Z,52.43
2019-06-07T17:19:51.331Z,52.02
2019-06-07T17:22:20.974Z,51.79
2019-06-07T17:24:50.844Z,52.61
2019-06-07T17:27:20.675Z,52.73
2019-06-07T17:29:50.300Z,52.73
2019-06-07T17:32:20.171Z,55.60
2019-06-07T17:34:51.181Z,55.06
2019-06-07T17:37:21.196Z,53.64
2019-06-07T17:39:51.180Z,53.72
2019-06-07T17:42:21.669Z,54.26
2019-06-07T17:44:51.617Z,53.97
2019-06-07T17:47:21.412Z,54.68
2019-06-07T17:49:52.155Z,55.36
2019-06-07T17:52:22.521Z,55.38
2019-06-07T17:54:52.474Z,54.92
2019-06-07T17:57:22.794Z,55.42
2019-06-07T17:59:54.404Z,56.53
2019-06-07T18:02:24.266Z,56.88
2019-06-07T18:04:54.646Z,57.30
2019-06-07T18:07:26.917Z,57.88
2019-06-07T18:09:57.364Z,57.77
2019-06-07T18:12:27.596Z,59.04
2019-06-07T18:14:57.454Z,58.99
2019-06-07T18:17:34.454Z,59.38
2019-06-07T18:19:59.527Z,59.81
2019-06-07T18:22:29.681Z,59.97
2019-06-07T18:24:59.473Z,60.55
2019-06-07T18:27:29.802Z,59.79
2019-06-07T18:29:59.668Z,59.81
2019-06-07T18:32:29.527Z,59.66
2019-06-07T18:35:00.452Z,59.46
2019-06-07T18:37:31.668Z,59.58
2019-06-07T18:40:01.479Z,59.78
2019-06-07T18:42:32.068Z,60.63
2019-06-07T18:45:09.483Z,61.44
2019-06-07T18:47:42.104Z,61.23
2019-06-07T18:50:15.379Z,61.24
2019-06-07T18:52:48.562Z,61.78
2019-06-07T18:55:22.095Z,61.87
2019-06-07T18:57:52.261Z,62.47
2019-06-07T19:00:24.299Z,63.51
2019-06-07T19:02:56.101Z,63.25
2019-06-07T19:05:27.086Z,63.68
2019-06-07T19:07:59.873Z,64.81
2019-06-07T19:10:31.737Z,64.41
2019-06-07T19:13:01.843Z,65.18
2019-06-07T19:15:34.060Z,65.55
2019-06-07T19:18:04.010Z,65.93
2019-06-07T19:20:33.666Z,65.27
2019-06-07T19:23:03.421Z,64.68
2019-06-07T19:25:33.132Z,65.51
2019-06-07T19:28:02.789Z,65.23
2019-06-07T19:30:32.458Z,65.43
2019-06-07T19:33:02.393Z,65.04
2019-06-07T19:35:32.086Z,65.57
2019-06-07T19:38:02.097Z,66.46
2019-06-07T19:40:32.076Z,67.96
2019-06-07T19:43:03.869Z,70.58
2019-06-07T19:45:35.166Z,70.76
2019-06-07T19:48:05.550Z,69.75
2019-06-07T19:50:35.531Z,69.08
2019-06-07T19:53:05.620Z,67.98
2019-06-07T19:55:36.509Z,67.76
2019-06-07T19:58:06.420Z,67.92
2019-06-07T20:00:36.359Z,68.99
2019-06-07T20:03:07.147Z,69.44
2019-06-07T20:05:36.824Z,69.70
2019-06-07T20:08:06.571Z,69.63
2019-06-07T20:10:37.132Z,70.87
2019-06-07T20:13:06.901Z,71.15
2019-06-07T20:15:37.399Z,70.10
2019-06-07T20:18:07.814Z,70.06
2019-06-07T20:20:37.438Z,70.30
2019-06-07T20:23:07.493Z,70.26
2019-06-07T20:25:37.227Z,69.92
2019-06-07T20:28:07.047Z,70.39
2019-06-07T20:30:36.898Z,70.38
2019-06-07T20:33:08.184Z,70.90
2019-06-07T20:35:38.240Z,73.07
2019-06-07T20:38:09.418Z,72.10
2019-06-07T20:40:39.363Z,72.25
2019-06-07T20:43:09.401Z,71.89
2019-06-07T20:45:39.468Z,73.15
2019-06-07T20:48:09.150Z,72.37
2019-06-07T20:50:38.829Z,71.32
2019-06-07T20:53:09.483Z,71.65
2019-06-07T20:55:39.382Z,72.67
2019-06-07T20:58:09.498Z,73.45
2019-06-07T21:00:39.411Z,72.28
2019-06-07T21:03:09.673Z,75.50
2019-06-07T21:05:39.469Z,76.20
2019-06-07T21:08:12.687Z,77.17
2019-06-07T21:10:40.403Z,75.30
2019-06-07T21:13:10.272Z,75.03
2019-06-07T21:15:48.982Z,75.10
2019-06-07T21:18:19.357Z,73.96
2019-06-07T21:20:45.071Z,75.71
2019-06-07T21:23:14.793Z,77.15
2019-06-07T21:25:44.933Z,76.59
2019-06-07T21:28:15.577Z,74.94
2019-06-07T21:30:45.548Z,73.75
2019-06-07T21:33:15.271Z,73.55
2019-06-07T21:35:44.968Z,74.31
2019-06-07T21:38:14.630Z,72.64
2019-06-07T21:40:44.695Z,75.47
2019-06-07T21:43:15.435Z,76.09
2019-06-07T21:45:45.140Z,72.78
2019-06-07T21:48:14.893Z,73.70
2019-06-07T21:50:45.745Z,73.58
2019-06-07T21:53:16.407Z,73.29
2019-06-07T21:55:46.243Z,72.72
2019-06-07T21:58:16.278Z,75.93
2019-06-07T22:01:04.701Z,77.02
2019-06-07T22:03:34.246Z,76.01
2019-06-07T22:06:07.632Z,75.07
2019-06-07T22:08:38.915Z,74.44
2019-06-07T22:11:10.254Z,75.42
2019-06-07T22:13:40.085Z,74.91
2019-06-07T22:16:23.350Z,76.80
2019-06-07T22:18:41.221Z,74.81
2019-06-07T22:21:10.872Z,74.56
2019-06-07T22:23:43.548Z,74.80
2019-06-07T22:26:13.265Z,75.34
2019-06-07T22:28:43.126Z,75.44
2019-06-07T22:31:12.860Z,77.79
2019-06-07T22:33:42.620Z,75.15
2019-06-07T22:36:13.226Z,75.34
2019-06-07T22:38:43.138Z,79.27
2019-06-07T22:41:13.982Z,80.11
2019-06-07T22:43:43.780Z,77.04
2019-06-07T22:46:13.526Z,80.89
2019-06-07T22:48:43.233Z,78.35
2019-06-07T22:51:14.520Z,76.26
2019-06-07T22:53:44.185Z,74.73
2019-06-07T22:56:16.065Z,75.63
2019-06-07T22:58:46.340Z,74.47
2019-06-07T23:01:17.096Z,74.48
2019-06-07T23:03:46.880Z,74.70
2019-06-07T23:06:16.967Z,74.69
2019-06-07T23:08:46.549Z,73.84
2019-06-07T23:11:17.227Z,73.86
2019-06-07T23:13:47.022Z,73.56
2019-06-07T23:16:17.764Z,75.86
2019-06-07T23:18:47.702Z,74.62
2019-06-07T23:21:17.925Z,75.63
2019-06-07T23:23:47.595Z,74.47
2019-06-07T23:26:18.289Z,75.89
2019-06-07T23:28:47.908Z,76.75
2019-06-07T23:31:18.551Z,76.51
2019-06-07T23:33:48.167Z,75.88
2019-06-07T23:36:19.261Z,75.43
2019-06-07T23:38:49.030Z,74.15
2019-06-07T23:41:20.430Z,76.73
2019-06-07T23:43:49.869Z,79.39
2019-06-07T23:46:21.591Z,80.21
2019-06-07T23:48:51.505Z,75.64
2019-06-07T23:51:22.020Z,76.49
2019-06-07T23:53:51.813Z,75.75
2019-06-07T23:56:22.266Z,75.89
2019-06-07T23:58:52.219Z,76.30
